| Record Date MM/DD/YYYY | Record Julian Date NNN day of the year | Air Temperature Max (Degrees Fahrenheit F) | Time Max Air Temperature HH:MM:SS This is the time of max air temperature standard time. | Air Temperature Min (Degrees Fahrenheit F) | Time Min Air Temperature HH:MM:SS This is the time of min air temperature standard time. | Air Temperature Observed (Degrees Fahrenheit F) This is an instantaneous reading for air temperature at 7:00:00 standard time. | Relative Humidity Max (Percent) | Time Max Relative Humidity HH:MM:SS This is the time of max relative humidity standard time. | Relative Humidity Min (Percent) | Time Min Relative Humidity HH:MM:SS This is the time of min relative humidity standard time. | Relative Humidity Observed (Percent) This is an instantaneous reading at 7:00:00 standard time. | Precipitation (Inches n.nn) total rain fall that occurred for the day. | Pan Evaporation (Inches n.nn) total evaporation that occured for the day. | Wind Run (Miles) Wind travel for the day. | Wind Speed (Miles Per Hour) Resultant / Average speed for the day. | Wind Direction (Degrees) Resultant Direction for the day | Solar Radiation (Langley's) that occurred for the day. | Soil Temperature Max at 2 inch depth (Degrees Fahrenheit F) that occurred during the day. | Time Max Soil temperature at 2 inches HH:MM:SS This is the time of max 2 inch soil temperature standard time. | Soil Temperature Min at 2 inch depth (Degrees Fahrenheit F) that occurred during the day. | Time Min Soil temperature at 2 inches HH:MM:SS This is the time of min 2 inch soil temperature standard time. | Soil Temperature Observed at 2 inch depth (Degrees Fahrenheit F) This is an instantaneous reading 2 inch soil temperature at 7:00:00 standard time. | Soil Temperature Max at 4 inch depth (Degrees Fahrenheit F) that occurred during the day. | Time Max Soil temperature at 4 inches HH:MM:SS This is the time of max 4 inch soil temperature standard time. | Soil Temperature Min at 4 inch depth (Degrees Fahrenheit F) that occurred during the day. | Time Min Soil temperature at 4 inches HH:MM:SS This is the time of min 4 inch soil temperature standard time. | Soil Temperature Observed at 4 inch depth (Degrees Fahrenheit F) This is an instantaneous reading 4 inch soil temperature at 7:00:00 standard time. | DD50 Degree Days 50 Fahrenheit. | Adjusted DD50 Degree Days 50 Fahrenheit adjusted for latitude. | DD60 Degree Days 60 Fahrenheit. |
|---|---|---|---|---|---|---|---|---|---|---|---|---|---|---|---|---|---|---|---|---|---|---|---|---|---|---|---|---|---|---|
| 04/07/2026 | 97 | 82 | 14:31:00 | 41 | 5:48:00 | 47 | 99 | 5:45:01 | 28 | 14:44:00 | 99 | 0 | 14 | 0.6 | 0 | 11.5 | 12.62 | 1.5 | ||||||||||||
| 04/08/2026 | 98 | 82 | 13:24:03 | 47 | 5:46:01 | 50 | 100 | 22:30:03 | 28 | 14:20:00 | 96 | 0 | 51 | 2.1 | 0 | 14.5 | 15.65 | 4.5 | ||||||||||||
| 04/09/2026 | 99 | 83 | 15:06:01 | 44 | 5:25:01 | 50 | 99 | 5:35:00 | 33 | 11:50:00 | 98 | 0 | 46 | 1.9 | 0 | 13.5 | 14.68 | 3.5 | ||||||||||||
| 04/10/2026 | 100 | 90 | 15:42:02 | 47 | 5:48:02 | 51 | 99 | 4:37:00 | 32 | 15:44:01 | 98 | 0 | 15 | 0.6 | 0 | 18.5 | 19.71 | 8.5 | ||||||||||||
| 04/11/2026 | 101 | 90 | 14:39:00 | 49 | 5:17:01 | 55 | 99 | 5:49:03 | 31 | 14:39:03 | 98 | 0 | 12 | 0.5 | 0 | 19.5 | 20.75 | 9.5 | ||||||||||||
| 04/12/2026 | 102 | 88 | 14:48:01 | 49 | 5:36:00 | 56 | 99 | 5:53:00 | 35 | 14:48:02 | 98 | 0 | 62 | 2.6 | 0 | 18.5 | 19.78 | 8.5 | ||||||||||||
| 04/13/2026 | 103 | 86 | 15:50:04 | 60 | 23:27:04 | 66 | 97 | 23:53:01 | 48 | 15:50:02 | 85 | 0 | 49 | 2.0 | 0 | 23 | 24.31 | 13 | ||||||||||||
| 04/14/2026 | 104 | 89 | 14:00:05 | 57 | 5:30:00 | 64 | 98 | 6:22:02 | 40 | 16:52:01 | 98 | 0 | 49 | 2.0 | 0 | 23 | 24.34 | 13 | ||||||||||||
| 04/15/2026 | 105 | 88 | 14:44:02 | 55 | 3:16:03 | 63 | 99 | 5:09:01 | 38 | 13:56:01 | 98 | 0 | 49 | 2.1 | 0 | 21.5 | 22.87 | 11.5 | ||||||||||||
| 04/16/2026 | 106 | 90 | 15:50:02 | 61 | 0:07:00 | 70 | 97 | 0:20:04 | 37 | 13:19:03 | 86 | 0 | 60 | 2.5 | 0 | 25.5 | 26.9 | 15.5 | ||||||||||||
| 04/17/2026 | 107 | 92 | 14:43:05 | 58 | 4:59:02 | 63 | 98 | 5:07:03 | 41 | 16:17:01 | 97 | 0 | 45 | 1.9 | 0 | 25 | 26.43 | 15 | ||||||||||||
| 04/18/2026 | 108 | 85 | 12:48:02 | 51 | 23:21:04 | 69 | 97 | 0:26:05 | 53 | 12:49:00 | 85 | 0.21 | 95 | 4.0 | 0 | 18 | 19.46 | 8 | ||||||||||||
| 04/19/2026 | 109 | 74 | 15:47:02 | 44 | 23:43:04 | 50 | 99 | 5:36:01 | 30 | 16:16:00 | 97 | 0.01 | 50 | 2.1 | 0 | 9 | 10.49 | 0 | ||||||||||||
| 04/20/2026 | 110 | 83 | 13:18:01 | 38 | 4:39:01 | 44 | 99 | 6:01:01 | 25 | 13:20:01 | 99 | 0 | 22 | 0.9 | 0 | 10.5 | 12.01 | 0.5 | ||||||||||||
| 04/21/2026 | 111 | 85 | 15:15:03 | 42 | 5:11:03 | 50 | 99 | 6:00:02 | 24 | 13:43:01 | 99 | 0 | 37 | 1.6 | 0 | 13.5 | 15.04 | 3.5 | ||||||||||||
| 04/22/2026 | 112 | 88 | 15:37:05 | 48 | 4:53:03 | 55 | 98 | 5:49:05 | 26 | 14:57:00 | 96 | 0 | 36 | 1.5 | 0 | 18 | 19.57 | 8 | ||||||||||||
| 04/23/2026 | 113 | 88 | 14:26:00 | 51 | 5:10:00 | 60 | 98 | 5:28:00 | 32 | 14:26:04 | 97 | 0 | 47 | 2.0 | 0 | 19.5 | 21.1 | 9.5 | ||||||||||||
| 04/24/2026 | 114 | 82 | 14:37:01 | 53 | 4:23:02 | 63 | 98 | 21:24:01 | 58 | 14:40:02 | 95 | 1.56 | 60 | 2.5 | 0 | 17.5 | 19.12 | 7.5 | ||||||||||||
| 04/25/2026 | 115 | 84 | 14:43:05 | 63 | 5:13:00 | 66 | 98 | 5:17:04 | 59 | 16:20:00 | 98 | 0.11 | 54 | 2.3 | 0 | 23.5 | 25.15 | 13.5 | ||||||||||||
| 04/26/2026 | 116 | 91 | 14:07:00 | 61 | 4:38:01 | 65 | 99 | 5:24:04 | 47 | 14:00:05 | 97 | 0 | 11 | 0.4 | 0 | 26 | 27.68 | 16 | ||||||||||||
| 04/27/2026 | 117 | 90 | 15:33:03 | 62 | 5:08:04 | 68 | 99 | 5:41:00 | 51 | 15:36:03 | 98 | 0 | 76 | 3.1 | 0 | 26 | 27.7 | 16 | ||||||||||||
| 04/28/2026 | 118 | 76 | 0:02:02 | 68 | 21:37:02 | 71 | 98 | 21:58:02 | 73 | 0:07:03 | 93 | 2.07 | 50 | 2.1 | 0 | 22 | 23.73 | 12 | ||||||||||||
| 04/29/2026 | 119 | 84 | 14:13:00 | 62 | 0:00:00 | 71 | 98 | 2:23:02 | 68 | 14:15:03 | 98 | 0.73 | 62 | 2.6 | 0 | 23 | 24.75 | 13 | ||||||||||||
| 04/30/2026 | 120 | 75 | 12:50:00 | 56 | 0:00:00 | 57 | 98 | 3:19:03 | 49 | 12:25:05 | 90 | 0.23 | 31 | 1.3 | 0 | 15.5 | 17.28 | 5.5 | ||||||||||||
| 05/01/2026 | 121 | 66 | 13:33:04 | 54 | 5:31:00 | 55 | 97 | 19:51:04 | 57 | 13:37:03 | 90 | 0 | 25 | 1.0 | 0 | 10 | 11.8 | 0 | ||||||||||||
| 05/02/2026 | 122 | 74 | 13:18:04 | 48 | 23:12:01 | 53 | 97 | 23:03:00 | 32 | 12:56:00 | 82 | 0 | 59 | 2.5 | 0 | 11 | 12.82 | 1 | ||||||||||||
| 05/03/2026 | 123 | 79 | 16:01:02 | 42 | 4:26:05 | 48 | 99 | 6:04:01 | 30 | 15:57:04 | 99 | 0 | 28 | 1.2 | 0 | 10.5 | 12.35 | 0.5 | ||||||||||||
| 05/04/2026 | 124 | 83 | 15:14:02 | 47 | 5:11:01 | 56 | 99 | 5:21:03 | 35 | 15:52:05 | 99 | 0 | 72 | 3.0 | 0 | 15 | 16.87 | 5 | ||||||||||||
| 05/05/2026 | 125 | 79 | 12:49:02 | 54 | 2:04:03 | 62 | 98 | 2:53:05 | 58 | 12:50:01 | 89 | 0 | 56 | 2.3 | 0 | 16.5 | 18.39 | 6.5 | ||||||||||||
| 05/06/2026 | 126 | 83 | 12:44:02 | 57 | 23:42:04 | 73 | 98 | 23:16:04 | 73 | 12:44:04 | 88 | 0.1 | 99 | 4.1 | 0 | 20 | 21.91 | 10 | ||||||||||||
| Average | 83.63 | 52.3 | 59.03 | 98.33 | 42.37 | 94.67 | 0.17 | 47.4 | 0 | 0 | 0 | 0 | 0 | 0 | 0 | 17.97 | 19.51 | 8 | ||||||||||||
| Total | 5.02 | 539 | 585.26 | 240 |